sensor_id;sensor_type;location;lat;lon;timestamp;temperature;humidity
3752;DHT22;50827;47.014;7.652;2023-06-14T00:00:41;17.30;99.90
3752;DHT22;50827;47.014;7.652;2023-06-14T00:03:10;17.20;99.90
3752;DHT22;50827;47.014;7.652;2023-06-14T00:05:38;17.20;99.90
3752;DHT22;50827;47.014;7.652;2023-06-14T00:08:10;17.20;99.90
3752;DHT22;50827;47.014;7.652;2023-06-14T00:10:37;17.20;99.90
3752;DHT22;50827;47.014;7.652;2023-06-14T00:13:05;17.20;99.90
3752;DHT22;50827;47.014;7.652;2023-06-14T00:15:34;17.10;99.90
3752;DHT22;50827;47.014;7.652;2023-06-14T00:18:01;17.00;99.90
3752;DHT22;50827;47.014;7.652;2023-06-14T00:20:29;16.90;99.90
3752;DHT22;50827;47.014;7.652;2023-06-14T00:22:58;16.80;99.90
3752;DHT22;50827;47.014;7.652;2023-06-14T00:25:24;16.70;99.90
3752;DHT22;50827;47.014;7.652;2023-06-14T00:27:56;16.80;99.90
3752;DHT22;50827;47.014;7.652;2023-06-14T00:30:24;16.80;99.90
3752;DHT22;50827;47.014;7.652;2023-06-14T00:32:51;16.80;99.90
3752;DHT22;50827;47.014;7.652;2023-06-14T00:35:18;16.80;99.90
3752;DHT22;50827;47.014;7.652;2023-06-14T00:37:45;16.70;99.90
3752;DHT22;50827;47.014;7.652;2023-06-14T00:40:12;16.60;99.90
3752;DHT22;50827;47.014;7.652;2023-06-14T00:42:39;16.50;99.90
3752;DHT22;50827;47.014;7.652;2023-06-14T00:45:06;16.40;99.90
3752;DHT22;50827;47.014;7.652;2023-06-14T00:47:34;16.40;99.90
3752;DHT22;50827;47.014;7.652;2023-06-14T00:50:02;16.40;99.90
3752;DHT22;50827;47.014;7.652;2023-06-14T00:52:29;16.30;99.90
3752;DHT22;50827;47.014;7.652;2023-06-14T00:54:56;16.30;99.90
3752;DHT22;50827;47.014;7.652;2023-06-14T00:57:22;16.20;99.90
3752;DHT22;50827;47.014;7.652;2023-06-14T00:59:50;16.20;99.90
3752;DHT22;50827;47.014;7.652;2023-06-14T01:02:17;16.10;99.90
3752;DHT22;50827;47.014;7.652;2023-06-14T01:04:48;16.10;99.90
3752;DHT22;50827;47.014;7.652;2023-06-14T01:07:34;15.90;99.90
3752;DHT22;50827;47.014;7.652;2023-06-14T01:13:02;15.80;99.90
3752;DHT22;50827;47.014;7.652;2023-06-14T01:15:31;15.80;99.90
3752;DHT22;50827;47.014;7.652;2023-06-14T01:17:59;15.80;99.90
3752;DHT22;50827;47.014;7.652;2023-06-14T01:20:32;15.80;99.90
3752;DHT22;50827;47.014;7.652;2023-06-14T01:22:59;15.80;99.90
3752;DHT22;50827;47.014;7.652;2023-06-14T01:25:26;15.80;99.90
3752;DHT22;50827;47.014;7.652;2023-06-14T01:27:58;15.70;99.90
3752;DHT22;50827;47.014;7.652;2023-06-14T01:30:26;15.60;99.90
3752;DHT22;50827;47.014;7.652;2023-06-14T01:32:54;15.50;99.90
3752;DHT22;50827;47.014;7.652;2023-06-14T01:35:21;15.50;99.90
3752;DHT22;50827;47.014;7.652;2023-06-14T01:37:49;15.40;99.90
3752;DHT22;50827;47.014;7.652;2023-06-14T01:40:18;15.30;99.90
3752;DHT22;50827;47.014;7.652;2023-06-14T01:42:47;15.40;99.90
3752;DHT22;50827;47.014;7.652;2023-06-14T01:45:15;15.50;99.90
3752;DHT22;50827;47.014;7.652;2023-06-14T01:47:44;15.50;99.90
3752;DHT22;50827;47.014;7.652;2023-06-14T01:50:11;15.30;99.90
3752;DHT22;50827;47.014;7.652;2023-06-14T01:52:38;15.30;99.90
3752;DHT22;50827;47.014;7.652;2023-06-14T01:55:05;15.10;99.90
3752;DHT22;50827;47.014;7.652;2023-06-14T01:57:32;15.00;99.90
3752;DHT22;50827;47.014;7.652;2023-06-14T01:59:59;15.00;99.90
3752;DHT22;50827;47.014;7.652;2023-06-14T02:02:26;14.90;99.90
3752;DHT22;50827;47.014;7.652;2023-06-14T02:04:52;14.90;99.90
3752;DHT22;50827;47.014;7.652;2023-06-14T02:07:23;14.90;99.90
3752;DHT22;50827;47.014;7.652;2023-06-14T02:09:50;14.80;99.90
3752;DHT22;50827;47.014;7.652;2023-06-14T02:12:17;14.90;99.90
3752;DHT22;50827;47.014;7.652;2023-06-14T02:14:44;14.90;99.90
3752;DHT22;50827;47.014;7.652;2023-06-14T02:17:11;14.80;99.90
3752;DHT22;50827;47.014;7.652;2023-06-14T02:19:38;14.70;99.90
3752;DHT22;50827;47.014;7.652;2023-06-14T02:22:05;14.60;99.90
3752;DHT22;50827;47.014;7.652;2023-06-14T02:24:31;14.50;99.90
3752;DHT22;50827;47.014;7.652;2023-06-14T02:26:58;14.60;99.90
3752;DHT22;50827;47.014;7.652;2023-06-14T02:29:25;14.70;99.90
3752;DHT22;50827;47.014;7.652;2023-06-14T02:31:52;14.60;99.90
3752;DHT22;50827;47.014;7.652;2023-06-14T02:34:18;14.40;99.90
3752;DHT22;50827;47.014;7.652;2023-06-14T02:36:46;14.30;99.90
3752;DHT22;50827;47.014;7.652;2023-06-14T02:39:14;14.20;99.90
3752;DHT22;50827;47.014;7.652;2023-06-14T02:41:41;14.20;99.90
3752;DHT22;50827;47.014;7.652;2023-06-14T02:44:07;14.20;99.90
3752;DHT22;50827;47.014;7.652;2023-06-14T02:46:34;14.20;99.90
3752;DHT22;50827;47.014;7.652;2023-06-14T02:49:01;14.10;99.90
3752;DHT22;50827;47.014;7.652;2023-06-14T02:51:28;14.10;99.90
3752;DHT22;50827;47.014;7.652;2023-06-14T02:53:55;14.20;99.90
3752;DHT22;50827;47.014;7.652;2023-06-14T02:56:22;14.10;99.90
3752;DHT22;50827;47.014;7.652;2023-06-14T02:58:49;14.10;99.90
3752;DHT22;50827;47.014;7.652;2023-06-14T03:01:16;14.10;99.90
3752;DHT22;50827;47.014;7.652;2023-06-14T03:03:43;14.00;99.90
3752;DHT22;50827;47.014;7.652;2023-06-14T03:06:10;14.00;99.90
3752;DHT22;50827;47.014;7.652;2023-06-14T03:08:42;13.90;99.90
3752;DHT22;50827;47.014;7.652;2023-06-14T03:11:10;13.90;99.90
3752;DHT22;50827;47.014;7.652;2023-06-14T03:13:37;13.90;99.90
3752;DHT22;50827;47.014;7.652;2023-06-14T03:16:05;13.90;99.90
3752;DHT22;50827;47.014;7.652;2023-06-14T03:18:32;13.70;99.90
3752;DHT22;50827;47.014;7.652;2023-06-14T03:21:02;13.50;99.90
3752;DHT22;50827;47.014;7.652;2023-06-14T03:23:29;13.50;99.90
3752;DHT22;50827;47.014;7.652;2023-06-14T03:25:56;13.50;99.90
3752;DHT22;50827;47.014;7.652;2023-06-14T03:28:22;13.40;99.90
3752;DHT22;50827;47.014;7.652;2023-06-14T03:30:49;13.40;99.90
3752;DHT22;50827;47.014;7.652;2023-06-14T03:33:16;13.30;99.90
3752;DHT22;50827;47.014;7.652;2023-06-14T03:35:43;13.20;99.90
3752;DHT22;50827;47.014;7.652;2023-06-14T03:38:10;13.20;99.90
3752;DHT22;50827;47.014;7.652;2023-06-14T03:40:37;13.30;99.90
3752;DHT22;50827;47.014;7.652;2023-06-14T03:43:03;13.30;99.90
3752;DHT22;50827;47.014;7.652;2023-06-14T03:45:30;13.30;99.90
3752;DHT22;50827;47.014;7.652;2023-06-14T03:47:57;13.30;99.90
3752;DHT22;50827;47.014;7.652;2023-06-14T03:50:25;13.20;99.90
3752;DHT22;50827;47.014;7.652;2023-06-14T03:52:51;13.10;99.90
3752;DHT22;50827;47.014;7.652;2023-06-14T03:55:18;13.20;99.90
3752;DHT22;50827;47.014;7.652;2023-06-14T03:57:48;13.00;99.90
3752;DHT22;50827;47.014;7.652;2023-06-14T04:00:15;13.00;99.90
3752;DHT22;50827;47.014;7.652;2023-06-14T04:02:42;13.00;99.90
3752;DHT22;50827;47.014;7.652;2023-06-14T04:05:10;13.10;99.90
3752;DHT22;50827;47.014;7.652;2023-06-14T04:07:37;13.20;99.90
3752;DHT22;50827;47.014;7.652;2023-06-14T04:10:07;13.20;99.90
3752;DHT22;50827;47.014;7.652;2023-06-14T04:12:34;13.20;99.90
3752;DHT22;50827;47.014;7.652;2023-06-14T04:15:04;13.30;99.90
3752;DHT22;50827;47.014;7.652;2023-06-14T04:17:48;13.30;99.90
3752;DHT22;50827;47.014;7.652;2023-06-14T04:20:16;13.40;99.90
3752;DHT22;50827;47.014;7.652;2023-06-14T04:22:43;13.50;99.90
3752;DHT22;50827;47.014;7.652;2023-06-14T04:25:10;13.50;99.90
3752;DHT22;50827;47.014;7.652;2023-06-14T04:27:38;13.40;99.90
3752;DHT22;50827;47.014;7.652;2023-06-14T04:30:05;13.30;99.90
3752;DHT22;50827;47.014;7.652;2023-06-14T04:32:32;13.30;99.90
3752;DHT22;50827;47.014;7.652;2023-06-14T04:35:07;13.30;99.90
3752;DHT22;50827;47.014;7.652;2023-06-14T04:37:34;13.40;99.90
3752;DHT22;50827;47.014;7.652;2023-06-14T04:40:01;13.40;99.90
3752;DHT22;50827;47.014;7.652;2023-06-14T04:42:31;13.40;99.90
3752;DHT22;50827;47.014;7.652;2023-06-14T04:44:58;13.40;99.90
3752;DHT22;50827;47.014;7.652;2023-06-14T04:47:25;13.40;99.90
3752;DHT22;50827;47.014;7.652;2023-06-14T04:49:59;13.30;99.90
3752;DHT22;50827;47.014;7.652;2023-06-14T04:52:26;13.20;99.90
3752;DHT22;50827;47.014;7.652;2023-06-14T04:54:53;13.30;99.90
3752;DHT22;50827;47.014;7.652;2023-06-14T04:57:23;13.30;99.90
3752;DHT22;50827;47.014;7.652;2023-06-14T04:59:51;13.30;99.90
3752;DHT22;50827;47.014;7.652;2023-06-14T05:02:22;13.40;99.90
3752;DHT22;50827;47.014;7.652;2023-06-14T05:04:50;13.40;99.90
3752;DHT22;50827;47.014;7.652;2023-06-14T05:07:17;13.40;99.90
3752;DHT22;50827;47.014;7.652;2023-06-14T05:09:44;13.40;99.90
3752;DHT22;50827;47.014;7.652;2023-06-14T05:12:11;13.50;99.90
3752;DHT22;50827;47.014;7.652;2023-06-14T05:14:38;13.50;99.90
3752;DHT22;50827;47.014;7.652;2023-06-14T05:17:05;13.60;99.90
3752;DHT22;50827;47.014;7.652;2023-06-14T05:19:32;13.70;99.90
3752;DHT22;50827;47.014;7.652;2023-06-14T05:21:59;13.70;99.90
3752;DHT22;50827;47.014;7.652;2023-06-14T05:24:26;13.90;99.90
3752;DHT22;50827;47.014;7.652;2023-06-14T05:26:52;14.00;99.90
3752;DHT22;50827;47.014;7.652;2023-06-14T05:29:19;14.10;99.90
3752;DHT22;50827;47.014;7.652;2023-06-14T05:31:46;14.20;99.90
3752;DHT22;50827;47.014;7.652;2023-06-14T05:34:13;14.30;99.90
3752;DHT22;50827;47.014;7.652;2023-06-14T05:36:40;14.40;99.90
3752;DHT22;50827;47.014;7.652;2023-06-14T05:39:06;14.60;99.90
3752;DHT22;50827;47.014;7.652;2023-06-14T05:41:33;14.70;99.90
3752;DHT22;50827;47.014;7.652;2023-06-14T05:44:01;14.90;99.90
3752;DHT22;50827;47.014;7.652;2023-06-14T05:46:28;15.00;99.90
3752;DHT22;50827;47.014;7.652;2023-06-14T05:48:55;15.20;99.90
3752;DHT22;50827;47.014;7.652;2023-06-14T05:51:22;15.20;99.90
3752;DHT22;50827;47.014;7.652;2023-06-14T05:53:51;15.40;99.90
3752;DHT22;50827;47.014;7.652;2023-06-14T05:56:18;15.50;99.90
3752;DHT22;50827;47.014;7.652;2023-06-14T05:58:46;15.60;99.90
3752;DHT22;50827;47.014;7.652;2023-06-14T06:01:13;15.60;99.90
3752;DHT22;50827;47.014;7.652;2023-06-14T06:03:40;15.60;99.90
3752;DHT22;50827;47.014;7.652;2023-06-14T06:06:08;15.70;99.90
3752;DHT22;50827;47.014;7.652;2023-06-14T06:08:34;15.80;99.90
3752;DHT22;50827;47.014;7.652;2023-06-14T06:11:01;15.80;99.90
3752;DHT22;50827;47.014;7.652;2023-06-14T06:13:28;16.00;99.90
3752;DHT22;50827;47.014;7.652;2023-06-14T06:15:55;16.10;99.90
3752;DHT22;50827;47.014;7.652;2023-06-14T06:18:22;16.10;99.90
3752;DHT22;50827;47.014;7.652;2023-06-14T06:20:49;16.30;99.90
3752;DHT22;50827;47.014;7.652;2023-06-14T06:23:16;16.30;99.90
3752;DHT22;50827;47.014;7.652;2023-06-14T06:25:43;16.40;99.90
3752;DHT22;50827;47.014;7.652;2023-06-14T06:28:10;16.50;99.90
3752;DHT22;50827;47.014;7.652;2023-06-14T06:30:38;16.60;99.90
3752;DHT22;50827;47.014;7.652;2023-06-14T06:33:04;16.70;99.90
3752;DHT22;50827;47.014;7.652;2023-06-14T06:35:32;16.70;99.90
3752;DHT22;50827;47.014;7.652;2023-06-14T06:38:00;16.80;99.90
3752;DHT22;50827;47.014;7.652;2023-06-14T06:40:27;16.80;99.90
3752;DHT22;50827;47.014;7.652;2023-06-14T06:42:54;16.90;99.90
3752;DHT22;50827;47.014;7.652;2023-06-14T06:45:21;16.90;99.90
3752;DHT22;50827;47.014;7.652;2023-06-14T06:47:51;17.00;99.90
3752;DHT22;50827;47.014;7.652;2023-06-14T06:50:18;17.10;99.90
3752;DHT22;50827;47.014;7.652;2023-06-14T06:52:46;17.10;99.90
3752;DHT22;50827;47.014;7.652;2023-06-14T06:55:13;17.20;99.90
3752;DHT22;50827;47.014;7.652;2023-06-14T06:57:41;17.30;99.90
3752;DHT22;50827;47.014;7.652;2023-06-14T07:00:08;17.20;99.90
3752;DHT22;50827;47.014;7.652;2023-06-14T07:02:36;17.30;99.90
3752;DHT22;50827;47.014;7.652;2023-06-14T07:05:03;17.40;99.90
3752;DHT22;50827;47.014;7.652;2023-06-14T07:07:31;17.40;99.90
3752;DHT22;50827;47.014;7.652;2023-06-14T07:09:58;17.50;99.90
3752;DHT22;50827;47.014;7.652;2023-06-14T07:12:25;17.50;99.90
3752;DHT22;50827;47.014;7.652;2023-06-14T07:14:52;17.60;99.90
3752;DHT22;50827;47.014;7.652;2023-06-14T07:17:19;17.70;99.90
3752;DHT22;50827;47.014;7.652;2023-06-14T07:19:45;17.80;99.90
3752;DHT22;50827;47.014;7.652;2023-06-14T07:22:12;17.80;99.90
3752;DHT22;50827;47.014;7.652;2023-06-14T07:24:39;17.90;99.90
3752;DHT22;50827;47.014;7.652;2023-06-14T07:27:07;17.90;99.90
3752;DHT22;50827;47.014;7.652;2023-06-14T07:29:34;18.00;99.90
3752;DHT22;50827;47.014;7.652;2023-06-14T07:32:01;18.10;99.90
3752;DHT22;50827;47.014;7.652;2023-06-14T07:34:28;18.20;99.90
3752;DHT22;50827;47.014;7.652;2023-06-14T07:36:55;18.20;99.90
3752;DHT22;50827;47.014;7.652;2023-06-14T07:39:22;18.30;99.90
3752;DHT22;50827;47.014;7.652;2023-06-14T07:41:48;18.40;99.90
3752;DHT22;50827;47.014;7.652;2023-06-14T07:44:15;18.50;99.90
3752;DHT22;50827;47.014;7.652;2023-06-14T07:46:42;18.60;99.90
3752;DHT22;50827;47.014;7.652;2023-06-14T07:49:10;18.60;99.90
3752;DHT22;50827;47.014;7.652;2023-06-14T07:51:37;18.80;99.90
3752;DHT22;50827;47.014;7.652;2023-06-14T07:54:04;18.80;99.90
3752;DHT22;50827;47.014;7.652;2023-06-14T07:56:33;19.00;99.90
3752;DHT22;50827;47.014;7.652;2023-06-14T07:59:00;19.10;99.90
3752;DHT22;50827;47.014;7.652;2023-06-14T08:01:27;19.20;99.90
3752;DHT22;50827;47.014;7.652;2023-06-14T08:03:54;19.30;99.90
3752;DHT22;50827;47.014;7.652;2023-06-14T08:06:21;19.40;99.90
3752;DHT22;50827;47.014;7.652;2023-06-14T08:08:48;19.50;99.90
3752;DHT22;50827;47.014;7.652;2023-06-14T08:11:15;19.60;99.90
3752;DHT22;50827;47.014;7.652;2023-06-14T08:13:41;19.60;99.90
3752;DHT22;50827;47.014;7.652;2023-06-14T08:16:08;19.60;99.90
3752;DHT22;50827;47.014;7.652;2023-06-14T08:18:35;19.80;99.90
3752;DHT22;50827;47.014;7.652;2023-06-14T08:21:02;19.70;99.90
3752;DHT22;50827;47.014;7.652;2023-06-14T08:23:29;19.80;99.90
3752;DHT22;50827;47.014;7.652;2023-06-14T08:25:57;19.90;99.90
3752;DHT22;50827;47.014;7.652;2023-06-14T08:28:24;19.90;99.90
3752;DHT22;50827;47.014;7.652;2023-06-14T08:30:51;19.90;99.90
3752;DHT22;50827;47.014;7.652;2023-06-14T08:33:23;20.00;99.90
3752;DHT22;50827;47.014;7.652;2023-06-14T08:35:50;20.00;99.90
3752;DHT22;50827;47.014;7.652;2023-06-14T08:38:17;20.10;99.90
3752;DHT22;50827;47.014;7.652;2023-06-14T08:40:47;20.10;99.90
3752;DHT22;50827;47.014;7.652;2023-06-14T08:43:14;20.10;99.90
3752;DHT22;50827;47.014;7.652;2023-06-14T08:45:41;20.20;99.90
3752;DHT22;50827;47.014;7.652;2023-06-14T08:48:08;20.30;99.90
3752;DHT22;50827;47.014;7.652;2023-06-14T08:50:37;20.30;99.90
3752;DHT22;50827;47.014;7.652;2023-06-14T08:53:08;20.30;99.90
3752;DHT22;50827;47.014;7.652;2023-06-14T08:55:38;20.40;99.90
3752;DHT22;50827;47.014;7.652;2023-06-14T08:58:09;20.40;99.90
3752;DHT22;50827;47.014;7.652;2023-06-14T09:00:41;20.50;99.90
3752;DHT22;50827;47.014;7.652;2023-06-14T09:03:09;20.50;99.90
3752;DHT22;50827;47.014;7.652;2023-06-14T09:05:40;20.50;99.90
3752;DHT22;50827;47.014;7.652;2023-06-14T09:08:07;20.60;99.90
3752;DHT22;50827;47.014;7.652;2023-06-14T09:10:34;20.70;99.90
3752;DHT22;50827;47.014;7.652;2023-06-14T09:13:04;20.70;99.90
3752;DHT22;50827;47.014;7.652;2023-06-14T09:15:31;20.80;99.90
3752;DHT22;50827;47.014;7.652;2023-06-14T09:18:01;20.80;99.90
3752;DHT22;50827;47.014;7.652;2023-06-14T09:20:30;20.90;99.90
3752;DHT22;50827;47.014;7.652;2023-06-14T09:22:57;21.00;99.90
3752;DHT22;50827;47.014;7.652;2023-06-14T09:25:24;21.20;99.90
3752;DHT22;50827;47.014;7.652;2023-06-14T09:28:09;21.20;99.90
3752;DHT22;50827;47.014;7.652;2023-06-14T09:30:37;21.30;99.90
3752;DHT22;50827;47.014;7.652;2023-06-14T09:33:05;21.20;99.90
3752;DHT22;50827;47.014;7.652;2023-06-14T09:35:32;21.20;99.90
3752;DHT22;50827;47.014;7.652;2023-06-14T09:37:59;21.30;99.90
3752;DHT22;50827;47.014;7.652;2023-06-14T09:40:26;21.40;99.90
3752;DHT22;50827;47.014;7.652;2023-06-14T09:42:54;21.40;99.90
3752;DHT22;50827;47.014;7.652;2023-06-14T09:45:22;21.40;99.90
3752;DHT22;50827;47.014;7.652;2023-06-14T09:47:53;21.50;99.90
3752;DHT22;50827;47.014;7.652;2023-06-14T09:50:32;21.60;99.90
3752;DHT22;50827;47.014;7.652;2023-06-14T09:53:06;21.60;99.90
3752;DHT22;50827;47.014;7.652;2023-06-14T09:55:36;21.70;99.90
3752;DHT22;50827;47.014;7.652;2023-06-14T09:58:07;21.70;99.90
3752;DHT22;50827;47.014;7.652;2023-06-14T10:00:36;21.80;99.90
3752;DHT22;50827;47.014;7.652;2023-06-14T10:03:11;21.90;99.90
3752;DHT22;50827;47.014;7.652;2023-06-14T10:05:41;21.90;99.90
3752;DHT22;50827;47.014;7.652;2023-06-14T10:08:14;21.90;99.90
3752;DHT22;50827;47.014;7.652;2023-06-14T10:10:43;21.80;99.90
3752;DHT22;50827;47.014;7.652;2023-06-14T10:13:12;21.90;99.90
3752;DHT22;50827;47.014;7.652;2023-06-14T10:15:55;22.00;99.90
3752;DHT22;50827;47.014;7.652;2023-06-14T10:18:51;21.90;99.90
3752;DHT22;50827;47.014;7.652;2023-06-14T10:22:16;22.10;99.90
3752;DHT22;50827;47.014;7.652;2023-06-14T10:24:16;22.10;99.90
3752;DHT22;50827;47.014;7.652;2023-06-14T10:26:53;22.20;99.90
3752;DHT22;50827;47.014;7.652;2023-06-14T10:29:23;22.40;99.90
3752;DHT22;50827;47.014;7.652;2023-06-14T10:31:56;22.40;99.90
3752;DHT22;50827;47.014;7.652;2023-06-14T10:37:01;22.40;99.90
3752;DHT22;50827;47.014;7.652;2023-06-14T10:39:37;22.50;99.90
3752;DHT22;50827;47.014;7.652;2023-06-14T10:42:05;22.50;99.90
3752;DHT22;50827;47.014;7.652;2023-06-14T10:47:10;22.60;99.90
3752;DHT22;50827;47.014;7.652;2023-06-14T10:49:44;22.70;99.90
3752;DHT22;50827;47.014;7.652;2023-06-14T10:52:13;22.80;99.90
3752;DHT22;50827;47.014;7.652;2023-06-14T10:55:09;22.90;99.90
3752;DHT22;50827;47.014;7.652;2023-06-14T10:57:45;22.90;99.90
3752;DHT22;50827;47.014;7.652;2023-06-14T11:00:15;23.00;99.90
3752;DHT22;50827;47.014;7.652;2023-06-14T11:05:24;23.10;99.90
3752;DHT22;50827;47.014;7.652;2023-06-14T11:08:13;23.20;99.90
3752;DHT22;50827;47.014;7.652;2023-06-14T11:10:44;23.10;99.90
3752;DHT22;50827;47.014;7.652;2023-06-14T11:13:19;23.10;99.90
3752;DHT22;50827;47.014;7.652;2023-06-14T11:15:49;23.20;99.90
3752;DHT22;50827;47.014;7.652;2023-06-14T11:18:22;23.30;99.90
3752;DHT22;50827;47.014;7.652;2023-06-14T11:20:54;23.30;99.90
3752;DHT22;50827;47.014;7.652;2023-06-14T11:23:22;23.40;99.90
3752;DHT22;50827;47.014;7.652;2023-06-14T11:25:56;23.40;99.90
3752;DHT22;50827;47.014;7.652;2023-06-14T11:28:40;23.40;99.90
3752;DHT22;50827;47.014;7.652;2023-06-14T11:31:09;23.40;99.90
3752;DHT22;50827;47.014;7.652;2023-06-14T11:33:36;23.40;99.90
3752;DHT22;50827;47.014;7.652;2023-06-14T11:36:06;23.60;99.90
3752;DHT22;50827;47.014;7.652;2023-06-14T11:38:36;23.60;99.90
3752;DHT22;50827;47.014;7.652;2023-06-14T11:41:03;23.50;99.90
3752;DHT22;50827;47.014;7.652;2023-06-14T11:43:31;23.50;99.90
3752;DHT22;50827;47.014;7.652;2023-06-14T11:46:02;23.60;99.90
3752;DHT22;50827;47.014;7.652;2023-06-14T11:48:42;23.70;99.90
3752;DHT22;50827;47.014;7.652;2023-06-14T11:51:14;23.60;99.90
3752;DHT22;50827;47.014;7.652;2023-06-14T11:53:42;23.70;99.90
3752;DHT22;50827;47.014;7.652;2023-06-14T11:56:10;23.80;99.90
3752;DHT22;50827;47.014;7.652;2023-06-14T11:58:37;23.80;99.90
3752;DHT22;50827;47.014;7.652;2023-06-14T12:01:04;23.90;99.90
3752;DHT22;50827;47.014;7.652;2023-06-14T12:03:31;24.00;99.90
3752;DHT22;50827;47.014;7.652;2023-06-14T12:06:05;24.00;99.90
3752;DHT22;50827;47.014;7.652;2023-06-14T12:08:38;24.20;99.90
3752;DHT22;50827;47.014;7.652;2023-06-14T12:11:12;24.20;99.90
3752;DHT22;50827;47.014;7.652;2023-06-14T12:13:41;24.30;99.90
3752;DHT22;50827;47.014;7.652;2023-06-14T12:16:11;24.30;99.90
3752;DHT22;50827;47.014;7.652;2023-06-14T12:18:39;24.30;99.90
3752;DHT22;50827;47.014;7.652;2023-06-14T12:21:08;24.30;99.90
3752;DHT22;50827;47.014;7.652;2023-06-14T12:23:48;24.40;99.90
3752;DHT22;50827;47.014;7.652;2023-06-14T12:26:19;24.40;99.90
3752;DHT22;50827;47.014;7.652;2023-06-14T12:28:47;24.30;99.50
3752;DHT22;50827;47.014;7.652;2023-06-14T12:31:15;24.40;99.90
3752;DHT22;50827;47.014;7.652;2023-06-14T12:33:43;24.40;99.90
3752;DHT22;50827;47.014;7.652;2023-06-14T12:36:12;24.50;99.70
3752;DHT22;50827;47.014;7.652;2023-06-14T12:38:39;24.40;98.00
3752;DHT22;50827;47.014;7.652;2023-06-14T12:41:06;24.50;98.90
3752;DHT22;50827;47.014;7.652;2023-06-14T12:43:34;24.40;97.70
3752;DHT22;50827;47.014;7.652;2023-06-14T12:46:01;24.50;97.80
3752;DHT22;50827;47.014;7.652;2023-06-14T12:48:28;24.50;97.40
3752;DHT22;50827;47.014;7.652;2023-06-14T12:50:56;24.50;97.60
3752;DHT22;50827;47.014;7.652;2023-06-14T12:53:23;24.60;97.30
3752;DHT22;50827;47.014;7.652;2023-06-14T12:55:50;24.70;97.60
3752;DHT22;50827;47.014;7.652;2023-06-14T12:58:17;24.70;97.60
3752;DHT22;50827;47.014;7.652;2023-06-14T13:00:46;24.80;97.90
3752;DHT22;50827;47.014;7.652;2023-06-14T13:03:13;24.80;97.10
3752;DHT22;50827;47.014;7.652;2023-06-14T13:05:41;24.80;97.00
3752;DHT22;50827;47.014;7.652;2023-06-14T13:08:08;24.90;97.60
3752;DHT22;50827;47.014;7.652;2023-06-14T13:10:35;24.90;96.70
3752;DHT22;50827;47.014;7.652;2023-06-14T13:13:02;25.00;97.10
3752;DHT22;50827;47.014;7.652;2023-06-14T13:15:29;25.00;97.10
3752;DHT22;50827;47.014;7.652;2023-06-14T13:17:56;25.00;96.90
3752;DHT22;50827;47.014;7.652;2023-06-14T13:20:23;25.10;96.50
3752;DHT22;50827;47.014;7.652;2023-06-14T13:22:50;25.00;95.80
3752;DHT22;50827;47.014;7.652;2023-06-14T13:25:17;25.10;95.90
3752;DHT22;50827;47.014;7.652;2023-06-14T13:27:43;25.00;95.10
3752;DHT22;50827;47.014;7.652;2023-06-14T13:30:11;25.10;96.10
3752;DHT22;50827;47.014;7.652;2023-06-14T13:32:37;25.20;95.70
3752;DHT22;50827;47.014;7.652;2023-06-14T13:35:04;25.20;94.00
3752;DHT22;50827;47.014;7.652;2023-06-14T13:37:31;25.30;96.00
3752;DHT22;50827;47.014;7.652;2023-06-14T13:39:58;25.30;94.80
3752;DHT22;50827;47.014;7.652;2023-06-14T13:42:25;25.10;94.20
3752;DHT22;50827;47.014;7.652;2023-06-14T13:44:52;25.20;94.10
3752;DHT22;50827;47.014;7.652;2023-06-14T13:47:19;25.20;94.20
3752;DHT22;50827;47.014;7.652;2023-06-14T13:49:46;25.20;94.00
3752;DHT22;50827;47.014;7.652;2023-06-14T13:52:13;25.20;93.10
3752;DHT22;50827;47.014;7.652;2023-06-14T13:54:40;25.30;93.30
3752;DHT22;50827;47.014;7.652;2023-06-14T13:57:06;25.30;93.40
3752;DHT22;50827;47.014;7.652;2023-06-14T13:59:34;25.30;93.60
3752;DHT22;50827;47.014;7.652;2023-06-14T14:02:01;25.30;93.80
3752;DHT22;50827;47.014;7.652;2023-06-14T14:04:28;25.40;94.30
3752;DHT22;50827;47.014;7.652;2023-06-14T14:06:55;25.40;94.40
3752;DHT22;50827;47.014;7.652;2023-06-14T14:09:22;25.60;94.20
3752;DHT22;50827;47.014;7.652;2023-06-14T14:11:49;25.60;94.00
3752;DHT22;50827;47.014;7.652;2023-06-14T14:14:16;25.70;94.70
3752;DHT22;50827;47.014;7.652;2023-06-14T14:16:43;25.60;94.00
3752;DHT22;50827;47.014;7.652;2023-06-14T14:19:09;25.50;94.10
3752;DHT22;50827;47.014;7.652;2023-06-14T14:21:36;25.50;94.00
3752;DHT22;50827;47.014;7.652;2023-06-14T14:24:03;25.60;93.20
3752;DHT22;50827;47.014;7.652;2023-06-14T14:26:30;25.70;93.40
3752;DHT22;50827;47.014;7.652;2023-06-14T14:28:57;25.60;92.70
3752;DHT22;50827;47.014;7.652;2023-06-14T14:31:24;25.70;93.00
3752;DHT22;50827;47.014;7.652;2023-06-14T14:33:50;25.70;92.50
3752;DHT22;50827;47.014;7.652;2023-06-14T14:36:17;25.60;92.20
3752;DHT22;50827;47.014;7.652;2023-06-14T14:38:44;25.70;92.30
3752;DHT22;50827;47.014;7.652;2023-06-14T14:41:11;25.60;91.80
3752;DHT22;50827;47.014;7.652;2023-06-14T14:43:38;25.70;91.80
3752;DHT22;50827;47.014;7.652;2023-06-14T14:46:05;25.80;92.30
3752;DHT22;50827;47.014;7.652;2023-06-14T14:48:31;25.90;92.10
3752;DHT22;50827;47.014;7.652;2023-06-14T14:50:58;25.90;91.80
3752;DHT22;50827;47.014;7.652;2023-06-14T14:53:25;25.80;90.80
3752;DHT22;50827;47.014;7.652;2023-06-14T14:55:52;25.80;91.80
3752;DHT22;50827;47.014;7.652;2023-06-14T14:58:18;25.90;92.60
3752;DHT22;50827;47.014;7.652;2023-06-14T15:00:46;25.90;93.10
3752;DHT22;50827;47.014;7.652;2023-06-14T15:03:14;26.00;92.20
3752;DHT22;50827;47.014;7.652;2023-06-14T15:05:41;26.10;93.30
3752;DHT22;50827;47.014;7.652;2023-06-14T15:08:07;26.10;92.80
3752;DHT22;50827;47.014;7.652;2023-06-14T15:10:38;26.10;93.00
3752;DHT22;50827;47.014;7.652;2023-06-14T15:13:09;26.30;93.50
3752;DHT22;50827;47.014;7.652;2023-06-14T15:15:37;26.30;92.80
3752;DHT22;50827;47.014;7.652;2023-06-14T15:18:03;26.20;91.70
3752;DHT22;50827;47.014;7.652;2023-06-14T15:20:30;26.30;92.20
3752;DHT22;50827;47.014;7.652;2023-06-14T15:22:58;26.30;92.10
3752;DHT22;50827;47.014;7.652;2023-06-14T15:25:29;26.30;91.40
3752;DHT22;50827;47.014;7.652;2023-06-14T15:27:56;26.30;91.50
3752;DHT22;50827;47.014;7.652;2023-06-14T15:30:23;26.20;90.40
3752;DHT22;50827;47.014;7.652;2023-06-14T15:32:50;26.20;90.90
3752;DHT22;50827;47.014;7.652;2023-06-14T15:35:18;26.20;91.60
3752;DHT22;50827;47.014;7.652;2023-06-14T15:37:47;26.20;91.20
3752;DHT22;50827;47.014;7.652;2023-06-14T15:40:15;26.30;91.60
3752;DHT22;50827;47.014;7.652;2023-06-14T15:42:43;26.30;91.50
3752;DHT22;50827;47.014;7.652;2023-06-14T15:45:10;26.30;91.90
3752;DHT22;50827;47.014;7.652;2023-06-14T15:47:37;26.20;91.50
3752;DHT22;50827;47.014;7.652;2023-06-14T15:50:05;26.30;92.30
3752;DHT22;50827;47.014;7.652;2023-06-14T15:52:34;26.30;92.30
3752;DHT22;50827;47.014;7.652;2023-06-14T15:55:01;26.30;92.60
3752;DHT22;50827;47.014;7.652;2023-06-14T15:57:30;26.30;93.10
3752;DHT22;50827;47.014;7.652;2023-06-14T15:59:57;26.20;92.50
3752;DHT22;50827;47.014;7.652;2023-06-14T16:02:23;26.30;93.00